createdAt,value
2017-02-17T00:00:30.839Z,6.8
2017-02-17T00:01:30.032Z,6.72
2017-02-17T00:02:30.811Z,6.79
2017-02-17T00:03:30.785Z,6.79
2017-02-17T00:04:30.766Z,6.69
2017-02-17T00:05:30.764Z,6.61
2017-02-17T00:06:30.757Z,6.62
2017-02-17T00:07:30.716Z,6.62
2017-02-17T00:08:30.691Z,6.59
2017-02-17T00:09:30.685Z,6.69
2017-02-17T00:10:30.663Z,6.56
2017-02-17T00:11:30.664Z,6.51
2017-02-17T00:12:30.629Z,6.56
2017-02-17T00:13:30.626Z,6.47
2017-02-17T00:14:30.598Z,6.58
2017-02-17T00:15:30.563Z,6.53
2017-02-17T00:16:30.564Z,6.53
2017-02-17T00:17:30.555Z,6.54
2017-02-17T00:18:30.518Z,6.58
2017-02-17T00:19:30.500Z,6.51
2017-02-17T00:20:30.489Z,6.58
2017-02-17T00:21:30.463Z,6.53
2017-02-17T00:22:30.043Z,6.5
2017-02-17T00:23:30.422Z,6.47
2017-02-17T00:24:30.399Z,6.51
2017-02-17T00:25:30.383Z,6.51
2017-02-17T00:26:30.372Z,6.48
2017-02-17T00:27:30.366Z,6.46
2017-02-17T00:28:29.929Z,6.41
2017-02-17T00:29:30.316Z,6.33
2017-02-17T00:30:30.298Z,6.35
2017-02-17T00:31:30.477Z,6.3
2017-02-17T00:32:30.264Z,6.38
2017-02-17T00:33:30.248Z,6.36
2017-02-17T00:34:29.829Z,6.32
2017-02-17T00:35:30.217Z,6.33
2017-02-17T00:36:29.794Z,6.29
2017-02-17T00:37:30.165Z,6.38
2017-02-17T00:38:30.149Z,6.32
2017-02-17T00:39:30.138Z,6.26
2017-02-17T00:40:30.119Z,6.35
2017-02-17T00:41:30.095Z,6.33
2017-02-17T00:42:30.091Z,6.29
2017-02-17T00:43:30.051Z,6.25
2017-02-17T00:44:30.069Z,6.32
2017-02-17T00:45:30.017Z,6.36
2017-02-17T00:46:30.001Z,6.36
2017-02-17T00:47:29.976Z,6.33
2017-02-17T00:48:29.965Z,6.33
2017-02-17T00:49:29.946Z,6.3
2017-02-17T00:50:29.926Z,6.33
2017-02-17T00:51:29.115Z,6.3
2017-02-17T00:52:29.885Z,6.36
2017-02-17T00:53:29.866Z,6.4
2017-02-17T00:54:29.848Z,6.36
2017-02-17T01:06:50.630Z,6.43
2017-02-17T01:07:51.017Z,6.36
2017-02-17T01:08:50.589Z,6.4
2017-02-17T01:09:50.971Z,6.36
2017-02-17T01:10:50.943Z,6.28
2017-02-17T01:11:50.933Z,6.38
2017-02-17T01:12:50.910Z,6.35
2017-02-17T01:13:50.894Z,6.47
2017-02-17T01:14:50.886Z,6.4
2017-02-17T01:15:50.859Z,6.46
2017-02-17T01:16:50.838Z,6.51
2017-02-17T01:17:50.815Z,6.48
2017-02-17T01:18:50.805Z,6.5
2017-02-17T01:19:50.782Z,6.51
2017-02-17T01:20:50.757Z,6.58
2017-02-17T01:21:50.743Z,6.61
2017-02-17T01:22:50.738Z,6.53
2017-02-17T01:23:50.701Z,6.58
2017-02-17T01:24:50.696Z,6.61
2017-02-17T01:25:50.671Z,6.53
2017-02-17T01:26:50.650Z,6.51
2017-02-17T01:27:50.639Z,6.59
2017-02-17T01:28:50.616Z,6.51
2017-02-17T01:29:50.591Z,6.51
2017-02-17T01:30:50.595Z,6.44
2017-02-17T01:31:50.555Z,6.41
2017-02-17T01:32:50.156Z,6.44
2017-02-17T01:33:50.528Z,6.36
2017-02-17T01:34:50.506Z,6.44
2017-02-17T01:35:50.481Z,6.5
2017-02-17T01:36:50.463Z,6.48
2017-02-17T01:37:50.440Z,6.35
2017-02-17T01:38:50.432Z,6.4
2017-02-17T01:39:50.009Z,6.44
2017-02-17T01:40:50.388Z,6.32
2017-02-17T01:41:50.380Z,6.54
2017-02-17T01:42:50.367Z,6.51
2017-02-17T01:43:50.356Z,6.47
2017-02-17T01:44:50.316Z,6.63
2017-02-17T01:45:49.901Z,6.59
2017-02-17T01:46:50.273Z,6.68
2017-02-17T01:47:50.279Z,6.62
2017-02-17T01:48:50.245Z,6.62
2017-02-17T01:49:49.835Z,6.73
2017-02-17T01:50:50.214Z,6.72
2017-02-17T01:51:49.801Z,6.71
2017-02-17T01:52:50.168Z,6.68
2017-02-17T01:53:50.164Z,6.76
2017-02-17T01:54:50.146Z,6.77
2017-02-17T01:55:49.717Z,6.79
2017-02-17T01:56:50.109Z,6.84
2017-02-17T01:57:50.141Z,6.83
2017-02-17T01:58:49.659Z,6.83
2017-02-17T01:59:50.046Z,6.87
2017-02-17T02:00:50.027Z,6.86
2017-02-17T02:01:50.010Z,6.83
2017-02-17T02:02:49.602Z,6.81
2017-02-17T02:03:49.973Z,6.9
2017-02-17T02:04:49.975Z,6.86
2017-02-17T02:05:49.950Z,6.94
2017-02-17T02:06:49.933Z,6.86
2017-02-17T02:07:49.893Z,6.94
2017-02-17T02:08:49.480Z,6.9
2017-02-17T02:09:49.867Z,6.99
2017-02-17T02:10:49.840Z,6.97
2017-02-17T02:11:49.894Z,6.94
2017-02-17T02:12:49.818Z,6.95
2017-02-17T02:13:49.795Z,6.98
2017-02-17T02:14:49.773Z,7.01
2017-02-17T02:15:49.744Z,7.02
2017-02-17T02:16:49.728Z,7.02
2017-02-17T02:17:49.723Z,6.99
2017-02-17T02:18:49.311Z,6.84
2017-02-17T02:19:49.680Z,6.89
2017-02-17T02:20:49.654Z,6.99
2017-02-17T02:21:49.242Z,7.02
2017-02-17T02:22:49.241Z,6.95
2017-02-17T02:23:49.606Z,7.02
2017-02-17T02:24:49.616Z,6.98
2017-02-17T02:25:49.562Z,6.99
2017-02-17T02:26:49.555Z,7.04
2017-02-17T02:27:49.536Z,7.07
2017-02-17T02:28:49.519Z,7.07
2017-02-17T02:29:49.503Z,7.08
2017-02-17T02:30:49.696Z,6.95
2017-02-17T02:31:49.453Z,6.97
2017-02-17T02:32:49.049Z,6.99
2017-02-17T02:33:49.437Z,7.05
2017-02-17T02:34:49.406Z,6.97
2017-02-17T02:35:49.382Z,6.95
2017-02-17T02:36:48.970Z,6.97
2017-02-17T02:37:49.344Z,7.02
2017-02-17T02:38:49.356Z,6.97
2017-02-17T02:39:49.313Z,7.01
2017-02-17T02:40:48.896Z,7.04
2017-02-17T02:41:49.284Z,7.05
2017-02-17T02:42:49.265Z,7.01
2017-02-17T02:43:49.241Z,7.05
2017-02-17T02:44:48.827Z,7.01
2017-02-17T02:45:49.203Z,6.97
2017-02-17T02:46:49.197Z,6.98
2017-02-17T02:47:49.164Z,7.08
2017-02-17T02:48:49.157Z,7.04
2017-02-17T02:49:49.130Z,6.97
2017-02-17T02:50:49.115Z,7.02
2017-02-17T02:51:49.109Z,7.07
2017-02-17T02:52:48.677Z,7.04
2017-02-17T02:53:49.067Z,6.99
2017-02-17T02:54:49.051Z,7.09
2017-02-17T02:55:49.029Z,7.04
2017-02-17T02:56:49.084Z,7.01
2017-02-17T02:57:48.985Z,7.05
2017-02-17T02:58:48.983Z,7.01
2017-02-17T02:59:48.944Z,7.02
2017-02-17T03:00:48.932Z,6.97
2017-02-17T03:01:48.915Z,7.05
2017-02-17T03:02:48.925Z,7.09
2017-02-17T03:03:48.886Z,7.13
2017-02-17T03:04:48.879Z,7.09
2017-02-17T03:05:48.837Z,7.05
2017-02-17T03:06:48.831Z,7.12
2017-02-17T03:07:48.807Z,7.09
2017-02-17T03:08:48.388Z,7.15
2017-02-17T03:09:48.771Z,7.12
2017-02-17T03:10:48.755Z,7.15
2017-02-17T03:11:48.738Z,7.13
2017-02-17T03:12:48.326Z,7.08
2017-02-17T03:13:48.695Z,7.08
2017-02-17T03:14:48.677Z,7.09
2017-02-17T03:15:48.671Z,7.09
2017-02-17T03:16:48.246Z,7.19
2017-02-17T03:17:48.621Z,7.09
2017-02-17T03:18:48.215Z,7.16
2017-02-17T03:19:48.591Z,7.09
2017-02-17T03:20:48.564Z,7.01
2017-02-17T03:21:48.547Z,7.05
2017-02-17T03:22:48.145Z,7.01
2017-02-17T03:23:48.120Z,6.95
2017-02-17T03:24:48.499Z,7.02
2017-02-17T03:25:48.487Z,6.91
2017-02-17T03:26:48.460Z,7.01
2017-02-17T03:27:48.447Z,7.01
2017-02-17T03:28:48.441Z,7.02
2017-02-17T03:29:48.005Z,6.97
2017-02-17T03:30:48.389Z,6.95
2017-02-17T03:31:48.381Z,6.99
2017-02-17T03:32:48.359Z,6.95
2017-02-17T03:33:48.338Z,6.97
2017-02-17T03:34:48.326Z,6.95
2017-02-17T03:35:47.911Z,7.02
2017-02-17T03:36:47.893Z,6.99
2017-02-17T03:37:48.267Z,6.99
2017-02-17T03:38:48.251Z,6.97
2017-02-17T03:39:48.218Z,7.02
2017-02-17T03:40:48.209Z,6.99
2017-02-17T03:41:48.183Z,7.04
2017-02-17T03:42:48.172Z,6.95
2017-02-17T03:43:48.144Z,6.98
2017-02-17T03:44:48.137Z,6.97
2017-02-17T03:45:48.107Z,7.01
2017-02-17T03:46:48.094Z,6.97
2017-02-17T03:47:47.679Z,6.98
2017-02-17T03:48:47.672Z,6.98
2017-02-17T03:49:48.086Z,6.99
2017-02-17T03:50:48.044Z,6.84
2017-02-17T03:51:48.016Z,6.87
2017-02-17T03:52:47.986Z,6.81
2017-02-17T03:53:47.613Z,6.95
2017-02-17T03:54:47.954Z,6.98
2017-02-17T03:55:47.941Z,6.98
2017-02-17T03:56:47.911Z,7.01
2017-02-17T03:57:47.891Z,6.98
2017-02-17T03:58:47.882Z,7.05
2017-02-17T03:59:47.850Z,6.86
2017-02-17T04:00:47.834Z,6.95
2017-02-17T04:01:47.820Z,7.04
2017-02-17T04:02:47.414Z,6.9
2017-02-17T04:03:47.783Z,6.99
2017-02-17T04:04:47.768Z,6.91
2017-02-17T04:05:47.760Z,6.9
2017-02-17T04:06:47.793Z,6.87
2017-02-17T04:07:47.317Z,6.87
2017-02-17T04:08:47.317Z,6.9
2017-02-17T04:09:47.677Z,6.95
2017-02-17T04:10:47.655Z,6.83
2017-02-17T04:11:47.640Z,6.87
2017-02-17T04:12:47.623Z,6.9
2017-02-17T04:13:47.608Z,6.87
2017-02-17T04:14:47.589Z,6.91
2017-02-17T04:15:47.558Z,6.87
2017-02-17T04:16:47.549Z,6.87
2017-02-17T04:17:47.134Z,6.86
2017-02-17T04:18:47.512Z,6.87
2017-02-17T04:19:47.090Z,6.95
2017-02-17T04:20:47.072Z,6.9
2017-02-17T04:21:47.457Z,6.87
2017-02-17T04:22:47.440Z,6.87
2017-02-17T04:23:47.429Z,6.9
2017-02-17T04:24:47.000Z,6.97
2017-02-17T04:25:47.010Z,6.91
2017-02-17T04:26:47.370Z,6.89
2017-02-17T04:27:47.346Z,6.87
2017-02-17T04:28:47.321Z,6.91
2017-02-17T04:29:47.305Z,6.9
2017-02-17T04:30:47.296Z,6.89
2017-02-17T04:31:47.483Z,6.84
2017-02-17T04:32:47.257Z,6.89
2017-02-17T04:33:47.240Z,6.86
2017-02-17T04:34:47.221Z,6.87
2017-02-17T04:35:47.198Z,6.95
2017-02-17T04:36:47.180Z,6.87
2017-02-17T04:37:47.179Z,6.95
2017-02-17T04:38:47.155Z,6.86
2017-02-17T04:39:46.746Z,6.87
2017-02-17T04:40:47.130Z,6.9
2017-02-17T04:41:47.136Z,6.87
2017-02-17T04:42:47.066Z,6.9
2017-02-17T04:43:47.062Z,6.87
2017-02-17T04:44:47.048Z,6.9
2017-02-17T04:45:47.029Z,6.97
2017-02-17T04:46:47.000Z,6.91
2017-02-17T04:47:46.994Z,7.01
2017-02-17T04:48:46.962Z,6.83
2017-02-17T04:49:46.949Z,6.99
2017-02-17T04:50:46.926Z,6.91
2017-02-17T04:51:46.911Z,6.98
2017-02-17T04:52:46.891Z,7.02
2017-02-17T04:53:46.877Z,7.02
2017-02-17T04:54:46.862Z,6.94
2017-02-17T04:55:46.463Z,7.05
2017-02-17T04:56:46.819Z,6.97
2017-02-17T04:57:46.793Z,6.98
2017-02-17T04:58:46.787Z,6.84
2017-02-17T04:59:46.762Z,6.83
2017-02-17T05:00:46.738Z,6.99
2017-02-17T05:01:46.726Z,6.97
2017-02-17T05:02:46.310Z,6.99
2017-02-17T05:03:46.688Z,6.97
2017-02-17T05:04:46.674Z,7.02
2017-02-17T05:05:46.651Z,6.97
2017-02-17T05:06:46.642Z,7.01
2017-02-17T05:07:46.221Z,7.02
2017-02-17T05:08:46.608Z,6.8
2017-02-17T05:09:46.584Z,7.01
2017-02-17T05:10:46.565Z,7.01
2017-02-17T05:11:46.548Z,6.98
2017-02-17T05:12:46.551Z,7.01
2017-02-17T05:13:46.525Z,7.05
2017-02-17T05:14:46.491Z,6.98
2017-02-17T05:15:46.475Z,7.02
2017-02-17T05:16:46.460Z,7.01
2017-02-17T05:17:46.513Z,6.98
2017-02-17T05:18:46.434Z,7.02
2017-02-17T05:19:46.398Z,6.98
2017-02-17T05:20:46.374Z,6.95
2017-02-17T05:21:46.375Z,6.95
2017-02-17T05:22:46.350Z,6.97
2017-02-17T05:23:46.325Z,6.98
2017-02-17T05:24:46.310Z,6.98
2017-02-17T05:25:46.333Z,6.98
2017-02-17T05:26:46.282Z,6.97
2017-02-17T05:27:46.273Z,6.95
2017-02-17T05:28:46.234Z,6.97
2017-02-17T05:29:45.826Z,6.95
2017-02-17T05:30:46.209Z,6.98
2017-02-17T05:31:46.197Z,6.91
2017-02-17T05:32:46.168Z,6.95
2017-02-17T05:33:46.152Z,6.98
2017-02-17T05:34:46.146Z,6.98
2017-02-17T05:35:46.121Z,6.98
2017-02-17T05:36:46.093Z,6.95
2017-02-17T05:37:45.708Z,6.99
2017-02-17T05:38:46.067Z,7.01
2017-02-17T05:39:45.650Z,6.97
2017-02-17T05:40:46.040Z,6.99
2017-02-17T05:41:46.011Z,7.02
2017-02-17T05:42:45.996Z,6.94
2017-02-17T05:43:45.993Z,6.9
2017-02-17T05:44:45.958Z,6.99
2017-02-17T05:45:45.932Z,6.98
2017-02-17T05:46:45.928Z,6.99
2017-02-17T05:47:45.895Z,6.97
2017-02-17T05:48:45.873Z,7.01
2017-02-17T05:49:45.850Z,7.01
2017-02-17T05:50:45.835Z,7.04
2017-02-17T05:51:45.831Z,7.01
2017-02-17T05:52:45.813Z,6.95
2017-02-17T05:53:45.791Z,7.05
2017-02-17T05:54:45.762Z,7.04
2017-02-17T05:55:45.760Z,7.07
2017-02-17T05:56:45.740Z,6.99
2017-02-17T05:57:45.721Z,7.01
2017-02-17T05:58:45.693Z,7.09
2017-02-17T05:59:45.680Z,7.04
2017-02-17T06:00:45.664Z,6.97
2017-02-17T06:01:45.653Z,7.07
2017-02-17T06:02:45.226Z,7.05
2017-02-17T06:03:45.616Z,7.02
2017-02-17T06:04:45.584Z,7.07
2017-02-17T06:05:45.583Z,6.99
2017-02-17T06:06:45.545Z,7.07
2017-02-17T06:07:45.538Z,7.07
2017-02-17T06:08:45.526Z,7.01
2017-02-17T06:09:45.101Z,7.04
2017-02-17T06:10:45.471Z,7.01
2017-02-17T06:11:45.462Z,7.12
2017-02-17T06:12:45.439Z,7.08
2017-02-17T06:13:45.433Z,7.08
2017-02-17T06:14:45.452Z,6.97
2017-02-17T06:15:45.385Z,7.08
2017-02-17T06:16:45.377Z,7.01
2017-02-17T06:17:45.373Z,6.97
2017-02-17T06:18:45.325Z,7.05
2017-02-17T06:19:45.315Z,7.12
2017-02-17T06:20:44.903Z,7.01
2017-02-17T06:21:45.295Z,7.01
2017-02-17T06:22:45.251Z,6.97
2017-02-17T06:23:45.234Z,6.98
2017-02-17T06:24:45.233Z,6.98
2017-02-17T06:25:45.227Z,6.98
2017-02-17T06:26:45.184Z,6.97
2017-02-17T06:27:45.172Z,6.95
2017-02-17T06:28:45.154Z,7.02
2017-02-17T06:29:45.124Z,6.97
2017-02-17T06:30:45.116Z,6.94
2017-02-17T06:31:45.308Z,6.84
2017-02-17T06:32:44.694Z,7.04
2017-02-17T06:33:45.056Z,6.99
2017-02-17T06:34:45.075Z,7.04
2017-02-17T06:35:45.026Z,6.94
2017-02-17T06:36:45.010Z,7.04
2017-02-17T06:37:44.978Z,7.05
2017-02-17T06:38:44.618Z,6.99
2017-02-17T06:39:44.943Z,6.95
2017-02-17T06:40:44.933Z,6.94
2017-02-17T06:41:44.922Z,6.98
2017-02-17T06:42:44.892Z,6.95
2017-02-17T06:43:44.888Z,6.94
2017-02-17T06:44:44.460Z,6.94
2017-02-17T06:45:44.840Z,7.04
2017-02-17T06:46:44.814Z,7.02
2017-02-17T06:47:44.804Z,6.98
2017-02-17T06:48:44.391Z,6.97
2017-02-17T06:49:44.828Z,6.95
2017-02-17T06:50:44.750Z,6.99
2017-02-17T06:51:44.739Z,6.98
2017-02-17T06:52:44.805Z,7.04
2017-02-17T06:53:44.684Z,6.99
2017-02-17T06:54:44.687Z,6.97
2017-02-17T06:55:44.686Z,6.99
2017-02-17T06:56:44.657Z,7.02
2017-02-17T06:57:44.624Z,6.99
2017-02-17T06:58:44.595Z,6.97
2017-02-17T06:59:44.578Z,6.98
2017-02-17T07:00:44.582Z,6.99
2017-02-17T07:01:44.553Z,7.02
2017-02-17T07:02:44.558Z,6.91
2017-02-17T07:03:44.507Z,6.99
2017-02-17T07:04:44.497Z,6.98
2017-02-17T07:05:44.475Z,7.01
2017-02-17T07:06:44.455Z,7.02
2017-02-17T07:07:44.439Z,7.01
2017-02-17T07:08:44.430Z,6.97
2017-02-17T07:09:43.999Z,6.99
2017-02-17T07:10:44.016Z,6.99
2017-02-17T07:11:44.380Z,6.97
2017-02-17T07:12:44.342Z,6.89
2017-02-17T07:13:43.930Z,6.9
2017-02-17T07:14:43.909Z,6.99
2017-02-17T07:15:44.288Z,6.95
2017-02-17T07:16:44.265Z,7.04
2017-02-17T07:17:44.258Z,7.07
2017-02-17T07:18:44.230Z,7.02
2017-02-17T07:19:44.216Z,7.08
2017-02-17T07:20:44.200Z,6.98
2017-02-17T07:21:44.213Z,7.05
2017-02-17T07:22:44.154Z,7.07
2017-02-17T07:23:44.149Z,7.09
2017-02-17T07:24:44.241Z,7.09
2017-02-17T07:25:43.741Z,7.13
2017-02-17T07:26:44.107Z,7.19
2017-02-17T07:27:44.075Z,7.09
2017-02-17T07:28:44.105Z,7.17
2017-02-17T07:29:43.632Z,7.12
2017-02-17T07:30:44.023Z,7.17
2017-02-17T07:31:43.994Z,7.19
2017-02-17T07:32:43.584Z,7.23
2017-02-17T07:33:43.569Z,7.16
2017-02-17T07:34:43.555Z,7.12
2017-02-17T07:35:43.914Z,7.16
2017-02-17T07:36:43.918Z,7.2
2017-02-17T07:37:44.506Z,7.12
2017-02-17T07:38:43.886Z,7.13
2017-02-17T07:39:43.916Z,7.09
2017-02-17T07:40:43.830Z,7.13
2017-02-17T07:41:43.818Z,7.08
2017-02-17T07:42:43.838Z,7.13
2017-02-17T07:43:43.777Z,7.12
2017-02-17T07:44:43.767Z,7.12
2017-02-17T07:45:43.736Z,7.09
2017-02-17T07:46:43.718Z,7.07
2017-02-17T07:47:43.694Z,7.12
2017-02-17T07:48:43.682Z,7.09
2017-02-17T07:49:43.270Z,7.08
2017-02-17T07:50:43.658Z,7.09
2017-02-17T07:51:43.635Z,7.13
2017-02-17T07:52:43.617Z,7.12
2017-02-17T07:53:43.610Z,7.13
2017-02-17T07:54:43.585Z,7.08
2017-02-17T07:55:43.557Z,7.2
2017-02-17T07:56:43.149Z,7.12
2017-02-17T07:57:43.538Z,7.12
2017-02-17T07:58:43.507Z,7.12
2017-02-17T07:59:43.494Z,7.09
2017-02-17T08:00:43.537Z,7.16
2017-02-17T08:01:43.460Z,7.23
2017-02-17T08:02:43.432Z,7.12
2017-02-17T08:03:43.416Z,7.16
2017-02-17T08:04:43.393Z,7.13
2017-02-17T08:05:43.368Z,7.2
2017-02-17T08:06:43.366Z,7.19
2017-02-17T08:07:42.964Z,7.19
2017-02-17T08:08:42.928Z,7.23
2017-02-17T08:09:42.907Z,7.2
2017-02-17T08:10:43.304Z,7.22
2017-02-17T08:11:42.864Z,7.16
2017-02-17T08:12:43.250Z,7.19
2017-02-17T08:13:43.253Z,7.13
2017-02-17T08:14:43.212Z,7.2
2017-02-17T08:15:43.188Z,7.17
2017-02-17T08:16:42.396Z,7.12
2017-02-17T08:17:42.764Z,7.15
2017-02-17T08:18:43.139Z,7.2
2017-02-17T08:19:43.116Z,7.17
2017-02-17T08:20:43.101Z,7.12
2017-02-17T08:21:43.079Z,7.23
2017-02-17T08:22:43.069Z,7.22
2017-02-17T08:23:43.048Z,7.13
2017-02-17T08:24:43.040Z,7.26
2017-02-17T08:25:43.039Z,7.13
2017-02-17T08:26:43.010Z,7.19
2017-02-17T08:27:42.990Z,7.19
2017-02-17T08:28:42.569Z,7.19
2017-02-17T08:29:42.942Z,7.15
2017-02-17T08:30:42.919Z,7.2
2017-02-17T08:31:43.149Z,7.19
2017-02-17T08:32:42.905Z,7.32
2017-02-17T08:33:42.870Z,7.29
2017-02-17T08:34:42.897Z,7.23
2017-02-17T08:35:42.879Z,7.22
2017-02-17T08:36:42.448Z,7.15
2017-02-17T08:37:42.808Z,7.2
2017-02-17T08:38:42.814Z,7.17
2017-02-17T08:39:42.417Z,7.23
2017-02-17T08:40:42.797Z,7.16
2017-02-17T08:41:42.759Z,7.24
2017-02-17T08:42:42.326Z,7.2
2017-02-17T08:43:42.690Z,7.16
2017-02-17T08:44:42.290Z,7.22
2017-02-17T08:45:42.658Z,7.23
2017-02-17T08:46:42.635Z,7.23
2017-02-17T08:47:42.228Z,7.26
2017-02-17T08:48:42.213Z,7.29
2017-02-17T08:49:42.600Z,7.2
2017-02-17T08:50:42.563Z,7.22
2017-02-17T08:51:42.571Z,7.31
2017-02-17T08:52:42.547Z,7.34
2017-02-17T08:53:42.515Z,7.24
2017-02-17T08:54:42.105Z,7.24
2017-02-17T08:55:42.469Z,7.35
2017-02-17T08:56:42.470Z,7.35
2017-02-17T08:57:42.437Z,7.29
2017-02-17T08:58:42.426Z,7.34
2017-02-17T08:59:42.416Z,7.32
2017-02-17T09:00:42.379Z,7.34
2017-02-17T09:01:42.378Z,7.27
2017-02-17T09:02:41.966Z,7.34
2017-02-17T09:03:41.937Z,7.31
2017-02-17T09:04:42.318Z,7.32
2017-02-17T09:05:42.307Z,7.37
2017-02-17T09:06:41.889Z,7.4
2017-02-17T09:07:42.266Z,7.44
2017-02-17T09:08:41.842Z,7.41
2017-02-17T09:09:42.236Z,7.4
2017-02-17T09:10:42.209Z,7.45
2017-02-17T09:11:42.190Z,7.47
2017-02-17T09:12:42.217Z,7.49
2017-02-17T09:13:42.158Z,7.44
2017-02-17T09:14:42.136Z,7.45
2017-02-17T09:15:42.122Z,7.45
2017-02-17T09:16:42.115Z,7.47
2017-02-17T09:17:42.090Z,7.47
2017-02-17T09:18:42.110Z,7.53
2017-02-17T09:19:42.055Z,7.53
2017-02-17T09:20:42.040Z,7.62
2017-02-17T09:21:43.041Z,7.55
2017-02-17T09:22:42.017Z,7.55
2017-02-17T09:23:41.616Z,7.58
2017-02-17T09:24:41.962Z,7.62
2017-02-17T09:25:41.944Z,7.58
2017-02-17T09:26:41.928Z,7.62
2017-02-17T09:27:41.911Z,7.55
2017-02-17T09:28:41.890Z,7.62
2017-02-17T09:29:41.885Z,7.66
2017-02-17T09:30:41.861Z,7.62
2017-02-17T09:31:41.850Z,7.63
2017-02-17T09:32:41.833Z,7.67
2017-02-17T09:33:41.852Z,7.71
2017-02-17T09:34:41.787Z,7.71
2017-02-17T09:35:41.374Z,7.67
2017-02-17T09:36:41.367Z,7.71
2017-02-17T09:37:41.736Z,7.59
2017-02-17T09:38:41.726Z,7.63
2017-02-17T09:39:41.717Z,7.62
2017-02-17T09:40:41.687Z,7.53
2017-02-17T09:41:41.683Z,7.59
2017-02-17T09:42:41.280Z,7.63
2017-02-17T09:43:41.251Z,7.62
2017-02-17T09:44:41.662Z,7.63
2017-02-17T09:45:41.603Z,7.63
2017-02-17T09:46:41.194Z,7.58
2017-02-17T09:47:41.563Z,7.62
2017-02-17T09:48:41.551Z,7.6
2017-02-17T09:49:41.538Z,7.59
2017-02-17T09:50:41.511Z,7.66
2017-02-17T09:51:41.489Z,7.67
2017-02-17T09:52:41.482Z,7.67
2017-02-17T09:53:41.515Z,7.56
2017-02-17T09:54:41.466Z,7.72
2017-02-17T09:55:41.423Z,7.59
2017-02-17T09:56:41.411Z,7.58
2017-02-17T09:57:41.387Z,7.67
2017-02-17T09:58:41.378Z,7.74
2017-02-17T09:59:40.959Z,7.69
2017-02-17T10:00:41.351Z,7.62
2017-02-17T10:01:41.341Z,7.71
2017-02-17T10:02:41.311Z,7.58
2017-02-17T10:03:41.293Z,7.71
2017-02-17T10:04:41.286Z,7.66
2017-02-17T10:05:41.268Z,7.63
2017-02-17T10:06:41.235Z,7.69
2017-02-17T10:07:41.215Z,7.74
2017-02-17T10:08:41.197Z,7.72
2017-02-17T10:09:41.190Z,7.67
2017-02-17T10:10:41.174Z,7.72
2017-02-17T10:11:41.169Z,7.66
2017-02-17T10:12:41.147Z,7.67
2017-02-17T10:13:41.117Z,7.72
2017-02-17T10:14:40.740Z,7.69
2017-02-17T10:15:41.093Z,7.67
2017-02-17T10:16:41.066Z,7.66
2017-02-17T10:17:41.047Z,7.66
2017-02-17T10:18:41.033Z,7.58
2017-02-17T10:19:41.024Z,7.72
2017-02-17T10:20:40.995Z,7.67
2017-02-17T10:21:40.974Z,7.74
2017-02-17T10:22:40.957Z,7.71
2017-02-17T10:23:40.946Z,7.72
2017-02-17T10:24:40.919Z,7.74
2017-02-17T10:25:40.910Z,7.71
2017-02-17T10:26:40.901Z,7.67
2017-02-17T10:27:40.886Z,7.77
2017-02-17T10:28:40.860Z,7.72
2017-02-17T10:29:40.447Z,7.74
2017-02-17T10:30:40.818Z,7.9
2017-02-17T10:31:41.040Z,7.93
2017-02-17T10:32:40.791Z,7.9
2017-02-17T10:33:40.770Z,7.84
2017-02-17T10:34:40.771Z,7.96
2017-02-17T10:35:40.743Z,8.04
2017-02-17T10:36:40.749Z,8.02
2017-02-17T10:37:40.702Z,8.04
2017-02-17T10:38:40.725Z,8.08
2017-02-17T10:39:40.689Z,8.14
2017-02-17T10:40:40.684Z,8.08
2017-02-17T10:41:40.650Z,8.04
2017-02-17T10:42:40.639Z,8.04
2017-02-17T10:43:40.605Z,8.03
2017-02-17T10:44:40.599Z,8.07
2017-02-17T10:45:40.585Z,7.99
2017-02-17T10:46:40.601Z,7.89
2017-02-17T10:47:40.558Z,7.85
2017-02-17T10:48:40.520Z,7.9
2017-02-17T10:49:40.561Z,7.93
2017-02-17T10:50:40.489Z,7.9
2017-02-17T10:51:40.460Z,7.84
2017-02-17T10:52:40.059Z,7.92
2017-02-17T10:53:40.431Z,7.94
2017-02-17T10:54:40.430Z,7.93
2017-02-17T10:55:40.425Z,7.92
2017-02-17T10:56:39.981Z,7.89
2017-02-17T10:57:40.372Z,7.81
2017-02-17T10:58:40.375Z,7.93
2017-02-17T10:59:40.331Z,7.9
2017-02-17T11:00:40.326Z,7.96
2017-02-17T11:01:40.322Z,7.82
2017-02-17T11:02:40.286Z,7.89
2017-02-17T11:03:40.275Z,7.9
2017-02-17T11:04:40.253Z,7.89
2017-02-17T11:05:40.239Z,7.94
2017-02-17T11:06:40.271Z,7.92
2017-02-17T11:07:40.196Z,7.9
2017-02-17T11:08:40.210Z,7.99
2017-02-17T11:09:40.157Z,7.99
2017-02-17T11:10:40.148Z,8.02
2017-02-17T11:11:40.135Z,8.03
2017-02-17T11:12:39.718Z,8.04
2017-02-17T11:13:39.709Z,8.1
2017-02-17T11:14:40.089Z,8.15
2017-02-17T11:15:39.683Z,8.04
2017-02-17T11:16:40.065Z,8.14
2017-02-17T11:17:39.663Z,8.11
2017-02-17T11:18:40.025Z,8.1
2017-02-17T11:19:40.005Z,8.14
2017-02-17T11:20:39.593Z,8.14
2017-02-17T11:21:39.966Z,8.12
2017-02-17T11:22:39.952Z,8.17
2017-02-17T11:23:39.996Z,8.14
2017-02-17T11:24:39.911Z,8.17
2017-02-17T11:25:39.509Z,8.17
2017-02-17T11:26:39.906Z,8.1
2017-02-17T11:27:39.861Z,8.15
2017-02-17T11:28:39.847Z,8.18
2017-02-17T11:29:39.838Z,8.14
2017-02-17T11:30:39.812Z,8.11
2017-02-17T11:31:39.786Z,8.15
2017-02-17T11:32:39.773Z,8.2
2017-02-17T11:33:39.762Z,8.14
2017-02-17T11:34:39.755Z,8.18
2017-02-17T11:35:39.729Z,8.21
2017-02-17T11:36:39.776Z,8.15
2017-02-17T11:37:39.715Z,8.14
2017-02-17T11:38:39.672Z,8.18
2017-02-17T11:39:39.664Z,8.22
2017-02-17T11:40:39.645Z,8.21
2017-02-17T11:41:39.234Z,8.21
2017-02-17T11:42:39.606Z,8.18
2017-02-17T11:43:39.602Z,8.21
2017-02-17T11:44:39.599Z,8.2
2017-02-17T11:45:39.580Z,8.17
2017-02-17T11:46:39.550Z,8.2
2017-02-17T11:47:39.531Z,8.18
2017-02-17T11:48:39.507Z,8.14
2017-02-17T11:49:39.110Z,8.15
2017-02-17T11:50:39.478Z,8.22
2017-02-17T11:51:39.456Z,8.12
2017-02-17T11:52:39.443Z,8.21
2017-02-17T11:53:39.425Z,8.22
2017-02-17T11:54:39.413Z,8.32
2017-02-17T11:55:39.400Z,8.2
2017-02-17T11:56:39.382Z,8.32
2017-02-17T11:57:39.391Z,8.28
2017-02-17T11:58:38.960Z,8.32
2017-02-17T11:59:39.321Z,8.32
2017-02-17T12:00:39.343Z,8.32
2017-02-17T12:01:39.295Z,8.3
2017-02-17T12:02:39.295Z,8.39
2017-02-17T12:03:39.260Z,8.33
2017-02-17T12:04:39.251Z,8.32
2017-02-17T12:05:39.237Z,8.33
2017-02-17T12:06:39.223Z,8.35
2017-02-17T12:07:39.209Z,8.29
2017-02-17T12:08:39.177Z,8.33
2017-02-17T12:09:39.169Z,8.36
2017-02-17T12:10:39.147Z,8.32
2017-02-17T12:11:39.137Z,8.4
2017-02-17T12:12:39.118Z,8.4
2017-02-17T12:13:39.098Z,8.39
2017-02-17T12:14:39.081Z,8.45
2017-02-17T12:15:39.076Z,8.47
2017-02-17T12:16:39.047Z,8.55
2017-02-17T12:17:39.039Z,8.68
2017-02-17T12:18:39.016Z,8.6
2017-02-17T12:19:39.010Z,8.79
2017-02-17T12:20:39.006Z,8.69
2017-02-17T12:21:38.970Z,8.71
2017-02-17T12:22:38.954Z,8.86
2017-02-17T12:23:38.938Z,8.97
2017-02-17T12:24:38.933Z,8.91
2017-02-17T12:25:38.509Z,8.79
2017-02-17T12:26:38.910Z,8.81
2017-02-17T12:27:38.887Z,8.83
2017-02-17T12:28:38.857Z,8.88
2017-02-17T12:29:38.853Z,8.94
2017-02-17T12:30:38.823Z,8.84
2017-02-17T12:31:39.028Z,8.87
2017-02-17T12:32:38.798Z,8.88
2017-02-17T12:33:38.787Z,8.88
2017-02-17T12:34:38.787Z,8.86
2017-02-17T12:35:38.769Z,8.84
2017-02-17T12:36:38.354Z,8.88
2017-02-17T12:37:38.730Z,8.9
2017-02-17T12:38:38.715Z,8.81
2017-02-17T12:39:38.690Z,8.9
2017-02-17T12:40:38.683Z,8.86
2017-02-17T12:41:38.661Z,8.9
2017-02-17T12:42:38.647Z,8.78
2017-02-17T12:43:38.232Z,8.79
2017-02-17T12:44:38.627Z,8.69
2017-02-17T12:45:38.609Z,8.72
2017-02-17T12:46:38.574Z,8.79
2017-02-17T12:47:38.561Z,8.83
2017-02-17T12:48:38.167Z,8.79
2017-02-17T12:49:38.543Z,8.9
2017-02-17T12:50:38.539Z,8.79
2017-02-17T12:51:38.501Z,8.71
2017-02-17T12:52:38.484Z,8.73
2017-02-17T12:53:38.468Z,8.72
2017-02-17T12:54:38.456Z,8.71
2017-02-17T12:55:38.447Z,8.66
2017-02-17T12:56:38.434Z,8.72
2017-02-17T12:57:38.410Z,8.6
2017-02-17T12:58:38.420Z,8.57
2017-02-17T12:59:37.973Z,8.54
2017-02-17T13:00:38.356Z,8.53
2017-02-17T13:01:38.362Z,8.48
2017-02-17T13:02:38.330Z,8.57
2017-02-17T13:03:38.311Z,8.55
2017-02-17T13:04:38.312Z,8.48
2017-02-17T13:05:38.308Z,8.39
2017-02-17T13:06:38.279Z,8.44
2017-02-17T13:07:37.877Z,8.45
2017-02-17T13:08:38.226Z,8.45
2017-02-17T13:09:38.210Z,8.44
2017-02-17T13:10:38.197Z,8.47
2017-02-17T13:11:38.196Z,8.47
2017-02-17T13:12:38.184Z,8.44
2017-02-17T13:13:38.153Z,8.35
2017-02-17T13:14:38.133Z,8.4
2017-02-17T13:15:38.119Z,8.48
2017-02-17T13:16:38.108Z,8.39
2017-02-17T13:17:38.101Z,8.42
2017-02-17T13:18:38.069Z,8.36
2017-02-17T13:19:38.092Z,8.39
2017-02-17T13:20:38.038Z,8.45
2017-02-17T13:21:38.028Z,8.45
2017-02-17T13:22:38.019Z,8.47
2017-02-17T13:23:37.995Z,8.37
2017-02-17T13:24:37.571Z,8.42
2017-02-17T13:25:37.958Z,8.4
2017-02-17T13:26:37.943Z,8.35
2017-02-17T13:27:37.536Z,8.36
2017-02-17T13:28:37.901Z,8.47
2017-02-17T13:29:37.895Z,8.45
2017-02-17T13:30:37.876Z,8.48
2017-02-17T13:31:37.458Z,8.47